sensor_id;sensor_type;location;lat;lon;timestamp;P1;durP1;ratioP1;P2;durP2;ratioP2
53775;SDS011;44276;49.534;6.378;2023-04-24T00:00:31;1.25;;;0.88;;
53775;SDS011;44276;49.534;6.378;2023-04-24T00:02:59;2.47;;;0.55;;
53775;SDS011;44276;49.534;6.378;2023-04-24T00:05:28;0.95;;;0.55;;
53775;SDS011;44276;49.534;6.378;2023-04-24T00:07:56;0.80;;;0.60;;
53775;SDS011;44276;49.534;6.378;2023-04-24T00:10:24;0.60;;;0.40;;
53775;SDS011;44276;49.534;6.378;2023-04-24T00:12:53;1.15;;;0.60;;
53775;SDS011;44276;49.534;6.378;2023-04-24T00:15:22;0.88;;;0.45;;
53775;SDS011;44276;49.534;6.378;2023-04-24T00:17:50;1.27;;;0.70;;
53775;SDS011;44276;49.534;6.378;2023-04-24T00:20:19;0.77;;;0.70;;
53775;SDS011;44276;49.534;6.378;2023-04-24T00:22:48;1.13;;;0.85;;
53775;SDS011;44276;49.534;6.378;2023-04-24T00:25:16;1.20;;;0.85;;
53775;SDS011;44276;49.534;6.378;2023-04-24T00:27:45;1.55;;;1.10;;
53775;SDS011;44276;49.534;6.378;2023-04-24T00:30:14;1.80;;;1.13;;
53775;SDS011;44276;49.534;6.378;2023-04-24T00:32:43;1.70;;;0.80;;
53775;SDS011;44276;49.534;6.378;2023-04-24T00:35:11;1.67;;;1.10;;
53775;SDS011;44276;49.534;6.378;2023-04-24T00:37:39;1.63;;;1.05;;
53775;SDS011;44276;49.534;6.378;2023-04-24T00:40:07;1.92;;;1.20;;
53775;SDS011;44276;49.534;6.378;2023-04-24T00:42:36;2.97;;;1.55;;
53775;SDS011;44276;49.534;6.378;2023-04-24T00:45:06;5.03;;;1.80;;
53775;SDS011;44276;49.534;6.378;2023-04-24T00:47:37;2.58;;;1.50;;
53775;SDS011;44276;49.534;6.378;2023-04-24T00:50:06;1.92;;;1.20;;
53775;SDS011;44276;49.534;6.378;2023-04-24T00:52:35;2.13;;;1.85;;
53775;SDS011;44276;49.534;6.378;2023-04-24T00:55:07;1.73;;;1.10;;
53775;SDS011;44276;49.534;6.378;2023-04-24T00:57:36;2.33;;;1.70;;
53775;SDS011;44276;49.534;6.378;2023-04-24T01:00:05;2.55;;;1.77;;
53775;SDS011;44276;49.534;6.378;2023-04-24T01:02:39;3.10;;;1.85;;
53775;SDS011;44276;49.534;6.378;2023-04-24T01:05:10;2.92;;;1.70;;
53775;SDS011;44276;49.534;6.378;2023-04-24T01:07:39;2.97;;;2.67;;
53775;SDS011;44276;49.534;6.378;2023-04-24T01:10:11;3.13;;;2.28;;
53775;SDS011;44276;49.534;6.378;2023-04-24T01:12:43;4.35;;;2.22;;
53775;SDS011;44276;49.534;6.378;2023-04-24T01:15:11;5.25;;;3.08;;
53775;SDS011;44276;49.534;6.378;2023-04-24T01:17:41;4.00;;;2.90;;
53775;SDS011;44276;49.534;6.378;2023-04-24T01:20:09;5.22;;;2.70;;
53775;SDS011;44276;49.534;6.378;2023-04-24T01:22:39;7.20;;;3.15;;
53775;SDS011;44276;49.534;6.378;2023-04-24T01:25:08;6.60;;;2.75;;
53775;SDS011;44276;49.534;6.378;2023-04-24T01:27:36;3.45;;;2.80;;
53775;SDS011;44276;49.534;6.378;2023-04-24T01:30:05;3.90;;;2.85;;
53775;SDS011;44276;49.534;6.378;2023-04-24T01:32:35;4.68;;;3.40;;
53775;SDS011;44276;49.534;6.378;2023-04-24T01:35:05;4.65;;;3.28;;
53775;SDS011;44276;49.534;6.378;2023-04-24T01:37:35;8.75;;;4.22;;
53775;SDS011;44276;49.534;6.378;2023-04-24T01:40:06;5.32;;;3.72;;
53775;SDS011;44276;49.534;6.378;2023-04-24T01:42:35;7.15;;;3.85;;
53775;SDS011;44276;49.534;6.378;2023-04-24T01:45:04;5.60;;;3.72;;
53775;SDS011;44276;49.534;6.378;2023-04-24T01:47:33;6.97;;;4.60;;
53775;SDS011;44276;49.534;6.378;2023-04-24T01:50:02;5.25;;;4.47;;
53775;SDS011;44276;49.534;6.378;2023-04-24T01:52:31;7.20;;;3.35;;
53775;SDS011;44276;49.534;6.378;2023-04-24T01:55:01;6.45;;;4.40;;
53775;SDS011;44276;49.534;6.378;2023-04-24T01:57:31;5.75;;;3.60;;
53775;SDS011;44276;49.534;6.378;2023-04-24T02:00:01;7.13;;;5.22;;
53775;SDS011;44276;49.534;6.378;2023-04-24T02:02:31;7.28;;;4.60;;
53775;SDS011;44276;49.534;6.378;2023-04-24T02:05:00;6.70;;;4.70;;
53775;SDS011;44276;49.534;6.378;2023-04-24T02:07:29;6.82;;;5.10;;
53775;SDS011;44276;49.534;6.378;2023-04-24T02:09:57;7.32;;;4.47;;
53775;SDS011;44276;49.534;6.378;2023-04-24T02:12:25;6.70;;;4.82;;
53775;SDS011;44276;49.534;6.378;2023-04-24T02:14:55;9.50;;;5.10;;
53775;SDS011;44276;49.534;6.378;2023-04-24T02:17:23;6.07;;;4.65;;
53775;SDS011;44276;49.534;6.378;2023-04-24T02:19:51;5.70;;;4.35;;
53775;SDS011;44276;49.534;6.378;2023-04-24T02:22:19;8.20;;;5.05;;
53775;SDS011;44276;49.534;6.378;2023-04-24T02:24:47;6.22;;;4.70;;
53775;SDS011;44276;49.534;6.378;2023-04-24T02:27:16;7.10;;;5.50;;
53775;SDS011;44276;49.534;6.378;2023-04-24T02:29:44;9.48;;;5.72;;
53775;SDS011;44276;49.534;6.378;2023-04-24T02:32:13;14.38;;;6.20;;
53775;SDS011;44276;49.534;6.378;2023-04-24T02:34:42;11.27;;;5.28;;
53775;SDS011;44276;49.534;6.378;2023-04-24T02:37:10;8.38;;;5.55;;
53775;SDS011;44276;49.534;6.378;2023-04-24T02:39:38;11.07;;;7.22;;
53775;SDS011;44276;49.534;6.378;2023-04-24T02:42:07;10.23;;;6.25;;
53775;SDS011;44276;49.534;6.378;2023-04-24T02:44:35;8.07;;;6.15;;
53775;SDS011;44276;49.534;6.378;2023-04-24T02:47:03;8.65;;;5.45;;
53775;SDS011;44276;49.534;6.378;2023-04-24T02:49:32;11.82;;;7.78;;
53775;SDS011;44276;49.534;6.378;2023-04-24T02:52:00;10.63;;;5.95;;
53775;SDS011;44276;49.534;6.378;2023-04-24T02:54:29;10.85;;;5.68;;
53775;SDS011;44276;49.534;6.378;2023-04-24T02:56:57;10.63;;;5.07;;
53775;SDS011;44276;49.534;6.378;2023-04-24T02:59:25;7.00;;;5.43;;
53775;SDS011;44276;49.534;6.378;2023-04-24T03:01:55;10.15;;;6.47;;
53775;SDS011;44276;49.534;6.378;2023-04-24T03:04:23;10.07;;;6.60;;
53775;SDS011;44276;49.534;6.378;2023-04-24T03:06:53;13.10;;;7.57;;
53775;SDS011;44276;49.534;6.378;2023-04-24T03:09:22;13.02;;;7.07;;
53775;SDS011;44276;49.534;6.378;2023-04-24T03:11:50;12.30;;;7.60;;
53775;SDS011;44276;49.534;6.378;2023-04-24T03:14:18;12.18;;;6.63;;
53775;SDS011;44276;49.534;6.378;2023-04-24T03:16:46;11.95;;;7.15;;
53775;SDS011;44276;49.534;6.378;2023-04-24T03:19:14;14.00;;;7.93;;
53775;SDS011;44276;49.534;6.378;2023-04-24T03:21:42;9.88;;;7.32;;
53775;SDS011;44276;49.534;6.378;2023-04-24T03:24:12;12.95;;;7.75;;
53775;SDS011;44276;49.534;6.378;2023-04-24T03:26:40;14.40;;;8.40;;
53775;SDS011;44276;49.534;6.378;2023-04-24T03:29:09;13.15;;;7.32;;
53775;SDS011;44276;49.534;6.378;2023-04-24T03:31:37;15.75;;;8.35;;
53775;SDS011;44276;49.534;6.378;2023-04-24T03:34:05;11.90;;;7.20;;
53775;SDS011;44276;49.534;6.378;2023-04-24T03:36:33;11.80;;;7.15;;
53775;SDS011;44276;49.534;6.378;2023-04-24T03:39:01;14.68;;;8.40;;
53775;SDS011;44276;49.534;6.378;2023-04-24T03:41:31;12.23;;;7.82;;
53775;SDS011;44276;49.534;6.378;2023-04-24T03:43:59;13.52;;;7.15;;
53775;SDS011;44276;49.534;6.378;2023-04-24T03:46:27;10.85;;;7.10;;
53775;SDS011;44276;49.534;6.378;2023-04-24T03:48:55;14.25;;;8.48;;
53775;SDS011;44276;49.534;6.378;2023-04-24T03:51:23;11.35;;;7.40;;
53775;SDS011;44276;49.534;6.378;2023-04-24T03:53:54;13.43;;;7.47;;
53775;SDS011;44276;49.534;6.378;2023-04-24T03:56:22;15.55;;;7.10;;
53775;SDS011;44276;49.534;6.378;2023-04-24T03:58:51;13.27;;;7.47;;
53775;SDS011;44276;49.534;6.378;2023-04-24T04:01:19;8.68;;;6.05;;
53775;SDS011;44276;49.534;6.378;2023-04-24T04:03:47;9.20;;;5.78;;
53775;SDS011;44276;49.534;6.378;2023-04-24T04:06:16;10.77;;;6.25;;
53775;SDS011;44276;49.534;6.378;2023-04-24T04:08:45;9.73;;;6.97;;
53775;SDS011;44276;49.534;6.378;2023-04-24T04:11:13;11.40;;;6.80;;
53775;SDS011;44276;49.534;6.378;2023-04-24T04:13:41;10.75;;;6.65;;
53775;SDS011;44276;49.534;6.378;2023-04-24T04:16:11;12.00;;;6.65;;
53775;SDS011;44276;49.534;6.378;2023-04-24T04:18:39;9.40;;;6.40;;
53775;SDS011;44276;49.534;6.378;2023-04-24T04:21:07;11.50;;;6.20;;
53775;SDS011;44276;49.534;6.378;2023-04-24T04:23:35;11.55;;;7.32;;
53775;SDS011;44276;49.534;6.378;2023-04-24T04:26:03;10.88;;;7.53;;
53775;SDS011;44276;49.534;6.378;2023-04-24T04:28:31;10.55;;;6.13;;
53775;SDS011;44276;49.534;6.378;2023-04-24T04:31:00;10.27;;;5.70;;
53775;SDS011;44276;49.534;6.378;2023-04-24T04:33:29;8.40;;;6.32;;
53775;SDS011;44276;49.534;6.378;2023-04-24T04:35:57;7.28;;;5.32;;
53775;SDS011;44276;49.534;6.378;2023-04-24T04:38:28;8.70;;;5.15;;
53775;SDS011;44276;49.534;6.378;2023-04-24T04:40:57;6.80;;;4.72;;
53775;SDS011;44276;49.534;6.378;2023-04-24T04:43:25;10.27;;;5.65;;
53775;SDS011;44276;49.534;6.378;2023-04-24T04:45:53;7.32;;;5.68;;
53775;SDS011;44276;49.534;6.378;2023-04-24T04:48:22;13.20;;;6.38;;
53775;SDS011;44276;49.534;6.378;2023-04-24T04:50:51;8.43;;;5.40;;
53775;SDS011;44276;49.534;6.378;2023-04-24T04:53:20;7.10;;;4.43;;
53775;SDS011;44276;49.534;6.378;2023-04-24T04:55:48;9.48;;;4.18;;
53775;SDS011;44276;49.534;6.378;2023-04-24T04:58:16;6.28;;;3.70;;
53775;SDS011;44276;49.534;6.378;2023-04-24T05:00:44;8.05;;;4.10;;
53775;SDS011;44276;49.534;6.378;2023-04-24T05:03:12;4.32;;;2.90;;
53775;SDS011;44276;49.534;6.378;2023-04-24T05:05:47;4.32;;;2.80;;
53775;SDS011;44276;49.534;6.378;2023-04-24T05:08:17;4.95;;;3.63;;
53775;SDS011;44276;49.534;6.378;2023-04-24T05:10:53;5.45;;;3.33;;
53775;SDS011;44276;49.534;6.378;2023-04-24T05:13:22;4.57;;;3.25;;
53775;SDS011;44276;49.534;6.378;2023-04-24T05:16:04;5.57;;;3.53;;
53775;SDS011;44276;49.534;6.378;2023-04-24T05:18:32;4.82;;;3.22;;
53775;SDS011;44276;49.534;6.378;2023-04-24T05:21:01;5.22;;;3.13;;
53775;SDS011;44276;49.534;6.378;2023-04-24T05:23:30;6.55;;;3.20;;
53775;SDS011;44276;49.534;6.378;2023-04-24T05:26:00;4.28;;;3.40;;
53775;SDS011;44276;49.534;6.378;2023-04-24T05:28:32;5.97;;;3.50;;
53775;SDS011;44276;49.534;6.378;2023-04-24T05:31:03;7.07;;;4.78;;
53775;SDS011;44276;49.534;6.378;2023-04-24T05:33:31;6.72;;;3.95;;
53775;SDS011;44276;49.534;6.378;2023-04-24T05:36:00;10.00;;;4.03;;
53775;SDS011;44276;49.534;6.378;2023-04-24T05:38:28;8.32;;;4.75;;
53775;SDS011;44276;49.534;6.378;2023-04-24T05:40:58;8.50;;;3.95;;
53775;SDS011;44276;49.534;6.378;2023-04-24T05:43:26;5.78;;;3.58;;
53775;SDS011;44276;49.534;6.378;2023-04-24T05:45:54;6.00;;;3.15;;
53775;SDS011;44276;49.534;6.378;2023-04-24T05:48:23;5.65;;;3.72;;
53775;SDS011;44276;49.534;6.378;2023-04-24T05:50:51;4.93;;;3.95;;
53775;SDS011;44276;49.534;6.378;2023-04-24T05:53:20;6.68;;;3.88;;
53775;SDS011;44276;49.534;6.378;2023-04-24T05:55:48;7.60;;;4.57;;
53775;SDS011;44276;49.534;6.378;2023-04-24T05:58:17;7.30;;;4.68;;
53775;SDS011;44276;49.534;6.378;2023-04-24T06:00:45;7.18;;;3.53;;
53775;SDS011;44276;49.534;6.378;2023-04-24T06:03:14;6.30;;;4.38;;
53775;SDS011;44276;49.534;6.378;2023-04-24T06:05:42;6.10;;;3.30;;
53775;SDS011;44276;49.534;6.378;2023-04-24T06:08:10;5.32;;;3.38;;
53775;SDS011;44276;49.534;6.378;2023-04-24T06:10:39;6.57;;;3.10;;
53775;SDS011;44276;49.534;6.378;2023-04-24T06:13:07;5.65;;;3.30;;
53775;SDS011;44276;49.534;6.378;2023-04-24T06:15:37;5.20;;;3.78;;
53775;SDS011;44276;49.534;6.378;2023-04-24T06:18:05;6.47;;;3.42;;
53775;SDS011;44276;49.534;6.378;2023-04-24T06:20:34;5.40;;;3.53;;
53775;SDS011;44276;49.534;6.378;2023-04-24T06:23:02;4.80;;;3.17;;
53775;SDS011;44276;49.534;6.378;2023-04-24T06:25:30;7.43;;;3.38;;
53775;SDS011;44276;49.534;6.378;2023-04-24T06:27:59;4.25;;;2.72;;
53775;SDS011;44276;49.534;6.378;2023-04-24T06:30:28;6.53;;;3.00;;
53775;SDS011;44276;49.534;6.378;2023-04-24T06:32:57;6.97;;;3.58;;
53775;SDS011;44276;49.534;6.378;2023-04-24T06:35:38;5.57;;;3.22;;
53775;SDS011;44276;49.534;6.378;2023-04-24T06:38:06;4.30;;;3.30;;
53775;SDS011;44276;49.534;6.378;2023-04-24T06:40:34;5.15;;;3.22;;
53775;SDS011;44276;49.534;6.378;2023-04-24T06:43:05;5.50;;;3.22;;
53775;SDS011;44276;49.534;6.378;2023-04-24T06:45:33;12.52;;;4.78;;
53775;SDS011;44276;49.534;6.378;2023-04-24T06:48:04;4.45;;;3.28;;
53775;SDS011;44276;49.534;6.378;2023-04-24T06:50:32;5.93;;;3.95;;
53775;SDS011;44276;49.534;6.378;2023-04-24T06:53:01;8.82;;;4.03;;
53775;SDS011;44276;49.534;6.378;2023-04-24T06:55:29;12.50;;;4.93;;
53775;SDS011;44276;49.534;6.378;2023-04-24T06:57:57;6.45;;;4.50;;
53775;SDS011;44276;49.534;6.378;2023-04-24T07:00:26;6.63;;;5.05;;
53775;SDS011;44276;49.534;6.378;2023-04-24T07:02:56;8.68;;;4.63;;
53775;SDS011;44276;49.534;6.378;2023-04-24T07:05:26;8.05;;;4.90;;
53775;SDS011;44276;49.534;6.378;2023-04-24T07:07:54;6.35;;;4.63;;
53775;SDS011;44276;49.534;6.378;2023-04-24T07:10:24;8.85;;;3.92;;
53775;SDS011;44276;49.534;6.378;2023-04-24T07:12:54;7.20;;;4.75;;
53775;SDS011;44276;49.534;6.378;2023-04-24T07:15:23;9.23;;;4.45;;
53775;SDS011;44276;49.534;6.378;2023-04-24T07:17:51;12.57;;;4.93;;
53775;SDS011;44276;49.534;6.378;2023-04-24T07:20:19;6.43;;;4.53;;
53775;SDS011;44276;49.534;6.378;2023-04-24T07:22:49;9.38;;;4.82;;
53775;SDS011;44276;49.534;6.378;2023-04-24T07:25:18;12.45;;;5.32;;
53775;SDS011;44276;49.534;6.378;2023-04-24T07:27:46;11.32;;;6.05;;
53775;SDS011;44276;49.534;6.378;2023-04-24T07:30:15;8.60;;;4.75;;
53775;SDS011;44276;49.534;6.378;2023-04-24T07:32:44;7.47;;;4.22;;
53775;SDS011;44276;49.534;6.378;2023-04-24T07:35:12;6.80;;;5.32;;
53775;SDS011;44276;49.534;6.378;2023-04-24T07:37:41;11.65;;;5.63;;
53775;SDS011;44276;49.534;6.378;2023-04-24T07:40:13;9.88;;;3.92;;
53775;SDS011;44276;49.534;6.378;2023-04-24T07:42:43;11.23;;;6.80;;
53775;SDS011;44276;49.534;6.378;2023-04-24T07:45:15;7.30;;;5.20;;
53775;SDS011;44276;49.534;6.378;2023-04-24T07:47:43;6.50;;;4.68;;
53775;SDS011;44276;49.534;6.378;2023-04-24T07:50:12;13.27;;;6.38;;
53775;SDS011;44276;49.534;6.378;2023-04-24T07:52:41;7.68;;;3.65;;
53775;SDS011;44276;49.534;6.378;2023-04-24T07:55:09;6.72;;;4.22;;
53775;SDS011;44276;49.534;6.378;2023-04-24T07:57:39;7.57;;;4.75;;
53775;SDS011;44276;49.534;6.378;2023-04-24T08:00:08;7.93;;;4.90;;
53775;SDS011;44276;49.534;6.378;2023-04-24T08:02:37;9.38;;;5.38;;
53775;SDS011;44276;49.534;6.378;2023-04-24T08:05:08;5.43;;;3.80;;
53775;SDS011;44276;49.534;6.378;2023-04-24T08:07:37;6.50;;;4.28;;
53775;SDS011;44276;49.534;6.378;2023-04-24T08:10:09;5.93;;;3.95;;
53775;SDS011;44276;49.534;6.378;2023-04-24T08:12:40;11.13;;;4.47;;
53775;SDS011;44276;49.534;6.378;2023-04-24T08:15:09;9.23;;;4.13;;
53775;SDS011;44276;49.534;6.378;2023-04-24T08:17:38;13.15;;;5.00;;
53775;SDS011;44276;49.534;6.378;2023-04-24T08:20:08;10.10;;;5.18;;
53775;SDS011;44276;49.534;6.378;2023-04-24T08:22:40;7.07;;;4.20;;
53775;SDS011;44276;49.534;6.378;2023-04-24T08:25:09;11.43;;;5.38;;
53775;SDS011;44276;49.534;6.378;2023-04-24T08:27:39;10.93;;;6.50;;
53775;SDS011;44276;49.534;6.378;2023-04-24T08:30:08;7.90;;;5.88;;
53775;SDS011;44276;49.534;6.378;2023-04-24T08:32:37;11.00;;;6.18;;
53775;SDS011;44276;49.534;6.378;2023-04-24T08:35:05;10.18;;;5.53;;
53775;SDS011;44276;49.534;6.378;2023-04-24T08:37:36;8.63;;;5.72;;
53775;SDS011;44276;49.534;6.378;2023-04-24T08:40:05;10.27;;;6.03;;
53775;SDS011;44276;49.534;6.378;2023-04-24T08:42:42;11.02;;;5.65;;
53775;SDS011;44276;49.534;6.378;2023-04-24T08:45:12;7.65;;;5.25;;
53775;SDS011;44276;49.534;6.378;2023-04-24T08:47:41;12.75;;;5.90;;
53775;SDS011;44276;49.534;6.378;2023-04-24T08:50:10;10.57;;;6.47;;
53775;SDS011;44276;49.534;6.378;2023-04-24T08:52:38;9.02;;;5.15;;
53775;SDS011;44276;49.534;6.378;2023-04-24T08:55:09;8.70;;;6.03;;
53775;SDS011;44276;49.534;6.378;2023-04-24T08:57:37;7.03;;;4.70;;
53775;SDS011;44276;49.534;6.378;2023-04-24T09:00:08;8.15;;;4.15;;
53775;SDS011;44276;49.534;6.378;2023-04-24T09:02:39;9.98;;;5.03;;
53775;SDS011;44276;49.534;6.378;2023-04-24T09:05:10;7.43;;;3.92;;
53775;SDS011;44276;49.534;6.378;2023-04-24T09:07:41;6.32;;;3.78;;
53775;SDS011;44276;49.534;6.378;2023-04-24T09:10:14;8.05;;;4.05;;
53775;SDS011;44276;49.534;6.378;2023-04-24T09:12:43;9.82;;;3.70;;
53775;SDS011;44276;49.534;6.378;2023-04-24T09:15:14;7.35;;;4.43;;
53775;SDS011;44276;49.534;6.378;2023-04-24T09:17:43;21.40;;;4.32;;
53775;SDS011;44276;49.534;6.378;2023-04-24T09:20:11;6.22;;;3.67;;
53775;SDS011;44276;49.534;6.378;2023-04-24T09:22:41;7.63;;;3.53;;
53775;SDS011;44276;49.534;6.378;2023-04-24T09:25:11;4.93;;;3.38;;
53775;SDS011;44276;49.534;6.378;2023-04-24T09:27:43;7.18;;;3.72;;
53775;SDS011;44276;49.534;6.378;2023-04-24T09:30:14;4.57;;;3.45;;
53775;SDS011;44276;49.534;6.378;2023-04-24T09:32:49;6.45;;;3.75;;
53775;SDS011;44276;49.534;6.378;2023-04-24T09:35:40;9.50;;;4.10;;
53775;SDS011;44276;49.534;6.378;2023-04-24T09:38:10;7.82;;;4.63;;
53775;SDS011;44276;49.534;6.378;2023-04-24T09:40:38;10.38;;;3.78;;
53775;SDS011;44276;49.534;6.378;2023-04-24T09:43:09;5.55;;;2.75;;
53775;SDS011;44276;49.534;6.378;2023-04-24T09:45:40;8.13;;;3.60;;
53775;SDS011;44276;49.534;6.378;2023-04-24T09:48:09;7.40;;;4.70;;
53775;SDS011;44276;49.534;6.378;2023-04-24T09:50:37;7.82;;;4.18;;
53775;SDS011;44276;49.534;6.378;2023-04-24T09:53:06;5.60;;;3.55;;
53775;SDS011;44276;49.534;6.378;2023-04-24T09:55:38;6.93;;;3.55;;
53775;SDS011;44276;49.534;6.378;2023-04-24T09:58:12;5.53;;;3.53;;
53775;SDS011;44276;49.534;6.378;2023-04-24T10:00:42;10.05;;;4.47;;
53775;SDS011;44276;49.534;6.378;2023-04-24T10:03:11;7.00;;;3.45;;
53775;SDS011;44276;49.534;6.378;2023-04-24T10:05:40;6.80;;;4.28;;
53775;SDS011;44276;49.534;6.378;2023-04-24T10:08:10;6.40;;;3.55;;
53775;SDS011;44276;49.534;6.378;2023-04-24T10:10:41;7.72;;;4.25;;
53775;SDS011;44276;49.534;6.378;2023-04-24T10:13:13;6.82;;;3.80;;
53775;SDS011;44276;49.534;6.378;2023-04-24T10:15:43;9.88;;;4.70;;
53775;SDS011;44276;49.534;6.378;2023-04-24T10:18:12;4.82;;;3.47;;
53775;SDS011;44276;49.534;6.378;2023-04-24T10:20:41;7.63;;;4.20;;
53775;SDS011;44276;49.534;6.378;2023-04-24T10:23:09;9.75;;;3.42;;
53775;SDS011;44276;49.534;6.378;2023-04-24T10:25:39;9.07;;;4.07;;
53775;SDS011;44276;49.534;6.378;2023-04-24T10:28:08;4.65;;;3.75;;
53775;SDS011;44276;49.534;6.378;2023-04-24T10:30:38;8.40;;;3.97;;
53775;SDS011;44276;49.534;6.378;2023-04-24T10:33:12;9.00;;;4.18;;
53775;SDS011;44276;49.534;6.378;2023-04-24T10:35:42;5.53;;;3.83;;
53775;SDS011;44276;49.534;6.378;2023-04-24T10:38:16;7.57;;;3.60;;
53775;SDS011;44276;49.534;6.378;2023-04-24T10:40:51;6.35;;;4.47;;
53775;SDS011;44276;49.534;6.378;2023-04-24T10:43:33;6.43;;;4.50;;
53775;SDS011;44276;49.534;6.378;2023-04-24T10:46:04;7.28;;;4.47;;
53775;SDS011;44276;49.534;6.378;2023-04-24T10:48:34;7.57;;;3.78;;
53775;SDS011;44276;49.534;6.378;2023-04-24T10:51:03;4.43;;;3.63;;
53775;SDS011;44276;49.534;6.378;2023-04-24T10:53:31;4.57;;;3.17;;
53775;SDS011;44276;49.534;6.378;2023-04-24T10:56:03;6.47;;;3.55;;
53775;SDS011;44276;49.534;6.378;2023-04-24T10:58:36;8.65;;;4.38;;
53775;SDS011;44276;49.534;6.378;2023-04-24T11:01:08;6.68;;;3.83;;
53775;SDS011;44276;49.534;6.378;2023-04-24T11:03:36;9.88;;;4.60;;
53775;SDS011;44276;49.534;6.378;2023-04-24T11:06:08;7.80;;;4.05;;
53775;SDS011;44276;49.534;6.378;2023-04-24T11:08:37;7.60;;;3.38;;
53775;SDS011;44276;49.534;6.378;2023-04-24T11:11:10;7.45;;;3.90;;
53775;SDS011;44276;49.534;6.378;2023-04-24T11:16:43;7.05;;;3.95;;
53775;SDS011;44276;49.534;6.378;2023-04-24T11:19:20;5.63;;;4.13;;
53775;SDS011;44276;49.534;6.378;2023-04-24T11:22:00;8.32;;;3.90;;
53775;SDS011;44276;49.534;6.378;2023-04-24T11:24:31;5.60;;;3.90;;
53775;SDS011;44276;49.534;6.378;2023-04-24T11:27:07;9.57;;;4.70;;
53775;SDS011;44276;49.534;6.378;2023-04-24T11:29:42;5.72;;;3.50;;
53775;SDS011;44276;49.534;6.378;2023-04-24T11:32:26;6.15;;;3.72;;
53775;SDS011;44276;49.534;6.378;2023-04-24T11:34:56;7.93;;;4.63;;
53775;SDS011;44276;49.534;6.378;2023-04-24T11:37:28;6.50;;;3.97;;
53775;SDS011;44276;49.534;6.378;2023-04-24T11:40:02;8.45;;;4.35;;
53775;SDS011;44276;49.534;6.378;2023-04-24T11:42:35;7.15;;;3.22;;
53775;SDS011;44276;49.534;6.378;2023-04-24T11:45:08;6.30;;;4.03;;
53775;SDS011;44276;49.534;6.378;2023-04-24T11:47:41;5.85;;;3.70;;
53775;SDS011;44276;49.534;6.378;2023-04-24T11:50:11;7.18;;;3.88;;
53775;SDS011;44276;49.534;6.378;2023-04-24T11:52:41;6.10;;;4.00;;
53775;SDS011;44276;49.534;6.378;2023-04-24T11:55:22;8.65;;;4.15;;
53775;SDS011;44276;49.534;6.378;2023-04-24T11:57:54;7.15;;;4.68;;
53775;SDS011;44276;49.534;6.378;2023-04-24T12:00:24;8.52;;;3.35;;
53775;SDS011;44276;49.534;6.378;2023-04-24T12:03:04;8.63;;;4.07;;
53775;SDS011;44276;49.534;6.378;2023-04-24T12:05:35;6.25;;;3.35;;
53775;SDS011;44276;49.534;6.378;2023-04-24T12:08:05;6.07;;;3.55;;
53775;SDS011;44276;49.534;6.378;2023-04-24T12:10:34;7.18;;;4.30;;
53775;SDS011;44276;49.534;6.378;2023-04-24T12:13:02;6.28;;;3.90;;
53775;SDS011;44276;49.534;6.378;2023-04-24T12:15:32;6.05;;;3.50;;
53775;SDS011;44276;49.534;6.378;2023-04-24T12:18:01;5.15;;;2.95;;
53775;SDS011;44276;49.534;6.378;2023-04-24T12:20:32;8.75;;;3.92;;
53775;SDS011;44276;49.534;6.378;2023-04-24T12:23:03;10.45;;;4.75;;
53775;SDS011;44276;49.534;6.378;2023-04-24T12:25:32;5.63;;;3.38;;
53775;SDS011;44276;49.534;6.378;2023-04-24T12:28:08;6.82;;;3.88;;
53775;SDS011;44276;49.534;6.378;2023-04-24T12:30:39;5.60;;;3.33;;
53775;SDS011;44276;49.534;6.378;2023-04-24T12:33:11;5.38;;;4.07;;
53775;SDS011;44276;49.534;6.378;2023-04-24T12:35:40;6.35;;;3.65;;
53775;SDS011;44276;49.534;6.378;2023-04-24T12:38:13;10.80;;;4.90;;
53775;SDS011;44276;49.534;6.378;2023-04-24T12:40:44;5.70;;;3.42;;
53775;SDS011;44276;49.534;6.378;2023-04-24T12:43:13;7.75;;;4.50;;
53775;SDS011;44276;49.534;6.378;2023-04-24T12:45:44;4.88;;;3.85;;
53775;SDS011;44276;49.534;6.378;2023-04-24T12:48:18;6.55;;;3.58;;
53775;SDS011;44276;49.534;6.378;2023-04-24T12:50:50;7.25;;;3.83;;
53775;SDS011;44276;49.534;6.378;2023-04-24T12:53:18;7.80;;;4.57;;
53775;SDS011;44276;49.534;6.378;2023-04-24T12:55:47;7.07;;;3.78;;
53775;SDS011;44276;49.534;6.378;2023-04-24T12:58:19;11.68;;;3.55;;
53775;SDS011;44276;49.534;6.378;2023-04-24T13:00:48;5.15;;;3.92;;
53775;SDS011;44276;49.534;6.378;2023-04-24T13:03:17;5.40;;;4.10;;
53775;SDS011;44276;49.534;6.378;2023-04-24T13:05:47;7.38;;;3.40;;
53775;SDS011;44276;49.534;6.378;2023-04-24T13:08:29;8.35;;;4.78;;
53775;SDS011;44276;49.534;6.378;2023-04-24T13:10:59;7.80;;;4.28;;
53775;SDS011;44276;49.534;6.378;2023-04-24T13:13:27;5.85;;;3.75;;
53775;SDS011;44276;49.534;6.378;2023-04-24T13:15:56;7.78;;;4.65;;
53775;SDS011;44276;49.534;6.378;2023-04-24T13:18:24;10.52;;;5.00;;
53775;SDS011;44276;49.534;6.378;2023-04-24T13:20:59;12.88;;;5.65;;
53775;SDS011;44276;49.534;6.378;2023-04-24T13:23:27;9.55;;;5.25;;
53775;SDS011;44276;49.534;6.378;2023-04-24T13:25:55;8.45;;;5.72;;
53775;SDS011;44276;49.534;6.378;2023-04-24T13:28:24;8.55;;;6.05;;
53775;SDS011;44276;49.534;6.378;2023-04-24T13:30:53;8.70;;;5.13;;
53775;SDS011;44276;49.534;6.378;2023-04-24T13:33:21;9.70;;;4.75;;
53775;SDS011;44276;49.534;6.378;2023-04-24T13:35:49;16.35;;;4.38;;
53775;SDS011;44276;49.534;6.378;2023-04-24T13:38:18;9.30;;;4.97;;
53775;SDS011;44276;49.534;6.378;2023-04-24T13:40:47;6.68;;;4.78;;
53775;SDS011;44276;49.534;6.378;2023-04-24T13:43:16;7.30;;;3.40;;
53775;SDS011;44276;49.534;6.378;2023-04-24T13:45:45;7.30;;;3.05;;
53775;SDS011;44276;49.534;6.378;2023-04-24T13:48:13;4.88;;;2.67;;
53775;SDS011;44276;49.534;6.378;2023-04-24T13:50:45;4.85;;;2.67;;
53775;SDS011;44276;49.534;6.378;2023-04-24T13:56:09;2.70;;;1.85;;
53775;SDS011;44276;49.534;6.378;2023-04-24T13:58:38;2.30;;;1.90;;
53775;SDS011;44276;49.534;6.378;2023-04-24T14:01:06;2.63;;;2.22;;
53775;SDS011;44276;49.534;6.378;2023-04-24T14:03:35;6.90;;;2.10;;
53775;SDS011;44276;49.534;6.378;2023-04-24T14:06:05;3.63;;;2.53;;
53775;SDS011;44276;49.534;6.378;2023-04-24T14:08:33;3.97;;;2.80;;
53775;SDS011;44276;49.534;6.378;2023-04-24T14:11:03;3.75;;;2.70;;
53775;SDS011;44276;49.534;6.378;2023-04-24T14:13:32;3.22;;;2.60;;
53775;SDS011;44276;49.534;6.378;2023-04-24T14:16:00;4.55;;;3.03;;
53775;SDS011;44276;49.534;6.378;2023-04-24T14:18:28;8.20;;;3.83;;
53775;SDS011;44276;49.534;6.378;2023-04-24T14:20:57;6.20;;;2.65;;
53775;SDS011;44276;49.534;6.378;2023-04-24T14:23:25;3.38;;;2.78;;
53775;SDS011;44276;49.534;6.378;2023-04-24T14:25:53;6.68;;;2.47;;
53775;SDS011;44276;49.534;6.378;2023-04-24T14:28:24;7.30;;;3.63;;
53775;SDS011;44276;49.534;6.378;2023-04-24T14:30:53;4.35;;;3.22;;
53775;SDS011;44276;49.534;6.378;2023-04-24T14:33:21;5.53;;;4.28;;
53775;SDS011;44276;49.534;6.378;2023-04-24T14:35:49;5.20;;;3.85;;
53775;SDS011;44276;49.534;6.378;2023-04-24T14:38:19;4.45;;;3.05;;
53775;SDS011;44276;49.534;6.378;2023-04-24T14:40:52;5.03;;;3.20;;
53775;SDS011;44276;49.534;6.378;2023-04-24T14:43:24;4.90;;;2.70;;
53775;SDS011;44276;49.534;6.378;2023-04-24T14:45:54;4.13;;;3.10;;
53775;SDS011;44276;49.534;6.378;2023-04-24T14:48:22;10.75;;;4.43;;
53775;SDS011;44276;49.534;6.378;2023-04-24T14:50:50;8.10;;;3.55;;
53775;SDS011;44276;49.534;6.378;2023-04-24T14:53:18;8.93;;;6.63;;
53775;SDS011;44276;49.534;6.378;2023-04-24T14:55:47;4.20;;;2.65;;
53775;SDS011;44276;49.534;6.378;2023-04-24T14:58:15;2.65;;;2.03;;
53775;SDS011;44276;49.534;6.378;2023-04-24T15:00:44;12.75;;;6.30;;
53775;SDS011;44276;49.534;6.378;2023-04-24T15:03:15;4.82;;;2.63;;
53775;SDS011;44276;49.534;6.378;2023-04-24T15:05:44;5.32;;;2.10;;